WFK weather

Northern Aroostook Regional Airport
Frenchville, Maine, United States

Public forecast

Using degrees Fahrenheit for public forecast. Weather courtesy of forecast.io.

Current aviation weather report (METAR) for Northern Aroostook Regional Airport

Retrieved 2019/12/13 03:53 UTC (56 minutes ago):

KFVE 130353Z AUTO 21006KT 10SM CLR M16/M20 A3053 RMK AO2 SLP362 T11561200

Aviation forecast (TAF) for Northern Aroostook Regional Airport

Retrieved 2019-12-13 00:40 UTC (4 hours ago):

TAF KFVE 122335Z 1300/1324 24005KT P6SM SKC FM130500 20003KT P6SM VCSH SCT020 BKN040 FM130800 17004KT 5SM -SN OVC020 FM131200 17005KT P6SM VCSH OVC025 FM131400 16008KT P6SM SCT030 OVC060